| Date | Time | Temp. (oF) | Dew Point (oF) | Rel. Hum. (%) | Press. (in.) | Wind Dir. | Wind Speed (mph) | Hourly Rainfall (in.) |
|
|---|---|---|---|---|---|---|---|---|---|
| 1 | 05/20 | 00:00 | 42 | 39 | 91 | 29.69 | SW | 0 | 0.00 |
| 2 | 05/19 | 23:00 | 45 | 39 | 80 | 29.70 | SW | 0 | 0.00 |
| 3 | 05/19 | 22:00 | 49 | 38 | 68 | 29.68 | WNW | 1 | 0.00 |
| 4 | 05/19 | 21:00 | 51 | 36 | 57 | 29.67 | WNW | 0 | 0.00 |
| 5 | 05/19 | 20:00 | 57 | 36 | 46 | 29.66 | WSW | 1 | 0.00 |
| 6 | 05/19 | 19:00 | 60 | 36 | 42 | 29.61 | W | 7 | 0.00 |
| 7 | 05/19 | 18:00 | 60 | 34 | 39 | 29.59 | N | 5 | 0.00 |
| 8 | 05/19 | 17:00 | 59 | 36 | 44 | 29.61 | NW | 10 | 0.00 |
| 9 | 05/19 | 16:00 | 57 | 36 | 47 | 29.61 | W | 8 | 0.00 |
| 10 | 05/19 | 15:00 | 58 | 35 | 43 | 29.60 | WNW | 10 | 0.00 |
| 11 | 05/19 | 14:00 | 57 | 37 | 48 | 29.58 | NW | 6 | 0.00 |
| 12 | 05/19 | 13:00 | 58 | 35 | 43 | 29.56 | W | 19 | 0.00 |
| 13 | 05/19 | 12:00 | 57 | 36 | 47 | 29.56 | WNW | 8 | 0.00 |
| 14 | 05/19 | 11:00 | 57 | 37 | 48 | 29.56 | SW | 10 | 0.00 |
| 15 | 05/19 | 10:00 | 57 | 38 | 50 | 29.56 | SW | 10 | 0.00 |
| 16 | 05/19 | 09:00 | 55 | 38 | 53 | 29.56 | SW | 10 | 0.00 |
| 17 | 05/19 | 08:00 | 52 | 38 | 59 | 29.56 | NW | 8 | 0.00 |
| 18 | 05/19 | 07:00 | 50 | 39 | 68 | 29.55 | WSW | 3 | 0.00 |
| 19 | 05/19 | 06:00 | 49 | 40 | 72 | 29.54 | W | 1 | 0.00 |
| 20 | 05/19 | 05:00 | 50 | 40 | 71 | 29.52 | SW | 4 | 0.00 |
| 21 | 05/19 | 04:00 | 50 | 40 | 70 | 29.50 | NW | 0 | 0.00 |
| 22 | 05/19 | 03:00 | 50 | 40 | 69 | 29.50 | NNW | 2 | 0.00 |
| 23 | 05/19 | 02:00 | 53 | 41 | 65 | 29.51 | WNW | 3 | 0.00 |
| 24 | 05/19 | 01:00 | 53 | 40 | 63 | 29.51 | WNW | 1 | 0.00 |